createdAt,value
2018-05-04T00:00:57.506Z,15.03
2018-05-04T00:10:55.429Z,14.90
2018-05-04T00:20:53.182Z,14.74
2018-05-04T00:30:46.999Z,14.72
2018-05-04T00:40:45.249Z,14.50
2018-05-04T00:50:43.237Z,14.54
2018-05-04T01:00:38.763Z,14.42
2018-05-04T01:10:36.508Z,14.31
2018-05-04T01:20:34.986Z,14.20
2018-05-04T01:30:32.522Z,14.19
2018-05-04T01:40:30.039Z,14.01
2018-05-04T01:50:28.901Z,13.89
2018-05-04T02:00:25.998Z,13.80
2018-05-04T02:10:19.686Z,13.84
2018-05-04T02:20:17.944Z,13.89
2018-05-04T02:30:13.422Z,14.11
2018-05-04T02:40:08.310Z,14.24
2018-05-04T02:50:07.538Z,14.20
2018-05-04T03:00:06.383Z,14.32
2018-05-04T03:10:03.616Z,14.44
2018-05-04T03:20:00.107Z,14.53
2018-05-04T03:29:57.828Z,14.67
2018-05-04T03:39:56.246Z,14.83
2018-05-04T03:49:53.175Z,14.85
2018-05-04T03:59:48.767Z,14.97
2018-05-04T04:09:47.952Z,14.95
2018-05-04T04:19:45.975Z,15.21
2018-05-04T04:29:40.511Z,15.33
2018-05-04T04:39:31.918Z,15.39
2018-05-04T04:49:22.789Z,15.38
2018-05-04T04:59:21.705Z,15.53
2018-05-04T05:09:18.702Z,15.66
2018-05-04T05:19:14.969Z,15.89
2018-05-04T05:29:13.161Z,15.92
2018-05-04T05:39:10.071Z,16.23
2018-05-04T05:49:08.042Z,16.57
2018-05-04T05:59:05.909Z,16.77
2018-05-04T06:09:04.179Z,16.78
2018-05-04T06:19:00.185Z,16.59
2018-05-04T06:28:56.983Z,16.74
2018-05-04T06:38:55.368Z,16.84
2018-05-04T06:48:52.603Z,16.77
2018-05-04T06:58:49.546Z,16.95
2018-05-04T07:08:43.876Z,16.96
2018-05-04T07:18:39.611Z,16.92
2018-05-04T07:28:34.327Z,17.17
2018-05-04T07:38:25.396Z,17.32
2018-05-04T07:48:24.204Z,17.63
2018-05-04T07:58:20.520Z,17.47
2018-05-04T08:08:15.887Z,17.33
2018-05-04T08:18:13.894Z,17.44
2018-05-04T08:28:12.235Z,17.36
2018-05-04T08:38:07.096Z,17.26
2018-05-04T08:48:01.628Z,17.13
2018-05-04T08:57:58.300Z,17.63
2018-05-04T09:07:57.332Z,18.06
2018-05-04T09:17:51.890Z,18.62
2018-05-04T09:27:48.048Z,18.90
2018-05-04T09:37:45.937Z,18.73
2018-05-04T09:47:42.809Z,18.99
2018-05-04T09:57:38.967Z,19.31
2018-05-04T10:07:37.495Z,19.43
2018-05-04T10:17:32.201Z,19.25
2018-05-04T10:27:27.761Z,18.95
2018-05-04T10:37:22.880Z,19.63
2018-05-04T10:47:20.648Z,19.69
2018-05-04T10:57:19.344Z,21.39
2018-05-04T11:07:18.015Z,21.21
2018-05-04T11:17:12.727Z,20.46
2018-05-04T11:27:12.832Z,22.12
2018-05-04T11:37:11.575Z,23.83
2018-05-04T11:47:12.137Z,25.77
2018-05-04T11:57:04.505Z,24.29
2018-05-04T12:07:00.381Z,24.88
2018-05-04T12:16:56.487Z,24.41
2018-05-04T12:26:52.347Z,23.68
2018-05-04T12:36:30.286Z,25.28
2018-05-04T12:46:10.521Z,27.16
2018-05-04T12:55:48.367Z,26.24
2018-05-04T13:05:42.708Z,24.27
2018-05-04T13:15:15.964Z,24.27
2018-05-04T13:24:52.054Z,23.75
2018-05-04T13:34:47.702Z,23.75
2018-05-04T13:44:45.239Z,23.85
2018-05-04T13:54:23.450Z,25.30
2018-05-04T14:04:18.288Z,24.04
2018-05-04T14:14:14.126Z,23.31
2018-05-04T14:24:09.723Z,22.75
2018-05-04T14:34:04.737Z,22.37
2018-05-04T14:44:00.838Z,22.16
2018-05-04T14:53:54.159Z,21.95
2018-05-04T15:03:49.099Z,22.08
2018-05-04T15:13:44.497Z,22.04
2018-05-04T15:23:42.294Z,22.04
2018-05-04T15:33:40.174Z,22.77
2018-05-04T15:43:39.775Z,24.37
2018-05-04T15:53:37.245Z,23.27
2018-05-04T16:03:33.967Z,22.96
2018-05-04T16:13:27.948Z,22.23
2018-05-04T16:23:22.534Z,21.64
2018-05-04T16:33:18.396Z,21.16
2018-05-04T16:43:14.701Z,20.62
2018-05-04T16:53:11.359Z,20.51
2018-05-04T17:03:05.303Z,20.20
2018-05-04T17:12:58.701Z,19.79
2018-05-04T17:22:50.969Z,19.60
2018-05-04T17:32:46.863Z,19.53
2018-05-04T17:42:40.245Z,19.05
2018-05-04T17:52:33.715Z,18.98
2018-05-04T18:02:26.549Z,18.74
2018-05-04T18:12:24.780Z,18.50
2018-05-04T18:22:20.166Z,18.44
2018-05-04T18:32:15.038Z,18.43
2018-05-04T18:42:12.129Z,18.35
2018-05-04T18:52:08.974Z,18.29
2018-05-04T19:02:00.171Z,17.77
2018-05-04T19:11:56.337Z,17.67
2018-05-04T19:21:49.179Z,17.66
2018-05-04T19:31:41.654Z,17.47
2018-05-04T19:41:39.112Z,17.50
2018-05-04T19:51:34.055Z,17.28
2018-05-04T20:01:28.566Z,17.57
2018-05-04T20:11:26.178Z,17.74
2018-05-04T20:21:20.655Z,17.46
2018-05-04T20:31:12.799Z,17.13
2018-05-04T20:41:09.982Z,16.90
2018-05-04T20:51:03.217Z,16.80
2018-05-04T21:00:57.550Z,16.88
2018-05-04T21:10:53.169Z,17.29
2018-05-04T21:20:49.884Z,17.02
2018-05-04T21:30:46.663Z,16.75
2018-05-04T21:40:43.661Z,16.42
2018-05-04T21:50:38.336Z,16.40
2018-05-04T22:00:34.756Z,16.34
2018-05-04T22:10:30.570Z,16.16
2018-05-04T22:20:28.236Z,16.12
2018-05-04T22:30:25.049Z,16.15
2018-05-04T22:40:21.931Z,15.76
2018-05-04T22:50:21.000Z,15.78
2018-05-04T23:00:08.232Z,15.52
2018-05-04T23:10:05.780Z,15.46
2018-05-04T23:20:01.778Z,15.38
2018-05-04T23:30:00.119Z,15.18
2018-05-04T23:39:56.577Z,15.15
2018-05-04T23:49:54.087Z,15.16
2018-05-04T23:59:48.538Z,15.10
